sensor_id;sensor_type;location;lat;lon;timestamp;pressure;altitude;pressure_sealevel;temperature;humidity
13420;BME280;6781;58.440;15.470;2023-04-30T00:01:29;100296.19;;;2.54;100.00
13420;BME280;6781;58.440;15.470;2023-04-30T00:03:56;100375.63;;;3.03;100.00
13420;BME280;6781;58.440;15.470;2023-04-30T00:06:23;100433.19;;;3.46;100.00
13420;BME280;6781;58.440;15.470;2023-04-30T00:08:50;100471.88;;;3.57;100.00
13420;BME280;6781;58.440;15.470;2023-04-30T00:11:19;100381.06;;;2.97;100.00
13420;BME280;6781;58.440;15.470;2023-04-30T00:13:46;100373.94;;;2.69;100.00
13420;BME280;6781;58.440;15.470;2023-04-30T00:16:13;100436.50;;;3.15;100.00
13420;BME280;6781;58.440;15.470;2023-04-30T00:18:40;100430.50;;;2.99;100.00
13420;BME280;6781;58.440;15.470;2023-04-30T00:21:07;100503.53;;;3.41;100.00
13420;BME280;6781;58.440;15.470;2023-04-30T00:23:34;100443.22;;;3.01;100.00
13420;BME280;6781;58.440;15.470;2023-04-30T00:26:01;100441.88;;;2.76;100.00
13420;BME280;6781;58.440;15.470;2023-04-30T00:28:30;100312.63;;;1.99;100.00
13420;BME280;6781;58.440;15.470;2023-04-30T00:30:57;100480.44;;;2.90;100.00
13420;BME280;6781;58.440;15.470;2023-04-30T00:33:24;100562.63;;;3.20;100.00
13420;BME280;6781;58.440;15.470;2023-04-30T00:35:51;100472.34;;;2.64;100.00
13420;BME280;6781;58.440;15.470;2023-04-30T00:38:18;100520.81;;;3.03;100.00
13420;BME280;6781;58.440;15.470;2023-04-30T00:40:46;100452.69;;;2.47;100.00
13420;BME280;6781;58.440;15.470;2023-04-30T00:43:14;100304.84;;;1.66;100.00
13420;BME280;6781;58.440;15.470;2023-04-30T00:45:43;100392.31;;;1.89;100.00
13420;BME280;6781;58.440;15.470;2023-04-30T00:48:10;100442.72;;;2.05;100.00
13420;BME280;6781;58.440;15.470;2023-04-30T00:50:37;100487.50;;;2.32;100.00
13420;BME280;6781;58.440;15.470;2023-04-30T00:53:05;100410.63;;;1.80;100.00
13420;BME280;6781;58.440;15.470;2023-04-30T00:55:32;100403.16;;;1.76;100.00
13420;BME280;6781;58.440;15.470;2023-04-30T00:57:59;100451.91;;;2.09;100.00
13420;BME280;6781;58.440;15.470;2023-04-30T01:00:27;100503.88;;;2.28;100.00
13420;BME280;6781;58.440;15.470;2023-04-30T01:02:56;100388.41;;;1.63;100.00
13420;BME280;6781;58.440;15.470;2023-04-30T01:05:23;100559.81;;;2.54;100.00
13420;BME280;6781;58.440;15.470;2023-04-30T01:07:51;100544.78;;;2.66;100.00
13420;BME280;6781;58.440;15.470;2023-04-30T01:10:20;100550.41;;;2.55;100.00
13420;BME280;6781;58.440;15.470;2023-04-30T01:12:55;100460.28;;;1.93;100.00
13420;BME280;6781;58.440;15.470;2023-04-30T01:15:27;100522.69;;;2.27;100.00
13420;BME280;6781;58.440;15.470;2023-04-30T01:18:03;100540.81;;;2.41;100.00
13420;BME280;6781;58.440;15.470;2023-04-30T01:20:34;100566.41;;;2.41;100.00
13420;BME280;6781;58.440;15.470;2023-04-30T01:23:13;100572.88;;;2.48;100.00
13420;BME280;6781;58.440;15.470;2023-04-30T01:25:53;100594.94;;;2.32;100.00
13420;BME280;6781;58.440;15.470;2023-04-30T01:28:28;100403.16;;;1.19;100.00
13420;BME280;6781;58.440;15.470;2023-04-30T01:30:56;100371.03;;;0.75;100.00
13420;BME280;6781;58.440;15.470;2023-04-30T01:33:24;100581.88;;;2.19;100.00
13420;BME280;6781;58.440;15.470;2023-04-30T01:36:12;100538.16;;;1.68;100.00
13420;BME280;6781;58.440;15.470;2023-04-30T01:38:54;100590.28;;;2.03;100.00
13420;BME280;6781;58.440;15.470;2023-04-30T01:41:30;100585.59;;;2.12;100.00
13420;BME280;6781;58.440;15.470;2023-04-30T01:44:21;100593.63;;;2.05;100.00
13420;BME280;6781;58.440;15.470;2023-04-30T01:46:55;100592.44;;;2.12;100.00
13420;BME280;6781;58.440;15.470;2023-04-30T01:49:31;100513.69;;;1.62;100.00
13420;BME280;6781;58.440;15.470;2023-04-30T01:52:11;100598.53;;;2.09;100.00
13420;BME280;6781;58.440;15.470;2023-04-30T01:54:44;100586.47;;;1.92;100.00
13420;BME280;6781;58.440;15.470;2023-04-30T01:57:17;100585.75;;;2.09;100.00
13420;BME280;6781;58.440;15.470;2023-04-30T01:59:48;100594.47;;;2.24;100.00
13420;BME280;6781;58.440;15.470;2023-04-30T02:02:16;100424.47;;;1.18;100.00
13420;BME280;6781;58.440;15.470;2023-04-30T02:07:28;100549.44;;;2.01;100.00
13420;BME280;6781;58.440;15.470;2023-04-30T02:10:03;100573.56;;;1.95;100.00
13420;BME280;6781;58.440;15.470;2023-04-30T02:12:30;100534.91;;;1.83;100.00
13420;BME280;6781;58.440;15.470;2023-04-30T02:14:59;100427.94;;;1.17;100.00
13420;BME280;6781;58.440;15.470;2023-04-30T02:17:26;100422.59;;;1.03;100.00
13420;BME280;6781;58.440;15.470;2023-04-30T02:19:53;100442.50;;;1.15;100.00
13420;BME280;6781;58.440;15.470;2023-04-30T02:22:20;100517.28;;;1.58;100.00
13420;BME280;6781;58.440;15.470;2023-04-30T02:24:47;100485.06;;;1.35;100.00
13420;BME280;6781;58.440;15.470;2023-04-30T02:27:14;100592.84;;;2.03;100.00
13420;BME280;6781;58.440;15.470;2023-04-30T02:29:41;100556.75;;;1.71;100.00
13420;BME280;6781;58.440;15.470;2023-04-30T02:32:09;100335.91;;;0.41;100.00
13420;BME280;6781;58.440;15.470;2023-04-30T02:34:36;100632.38;;;1.95;100.00
13420;BME280;6781;58.440;15.470;2023-04-30T02:37:04;100635.31;;;1.86;100.00
13420;BME280;6781;58.440;15.470;2023-04-30T02:39:31;100621.47;;;1.72;100.00
13420;BME280;6781;58.440;15.470;2023-04-30T02:41:59;100668.31;;;1.72;100.00
13420;BME280;6781;58.440;15.470;2023-04-30T02:44:26;100606.59;;;1.41;100.00
13420;BME280;6781;58.440;15.470;2023-04-30T02:46:55;100649.00;;;1.85;100.00
13420;BME280;6781;58.440;15.470;2023-04-30T02:49:23;100624.47;;;1.61;100.00
13420;BME280;6781;58.440;15.470;2023-04-30T02:51:51;100613.66;;;1.34;100.00
13420;BME280;6781;58.440;15.470;2023-04-30T02:54:22;100657.94;;;1.75;100.00
13420;BME280;6781;58.440;15.470;2023-04-30T02:56:49;100500.41;;;0.73;100.00
13420;BME280;6781;58.440;15.470;2023-04-30T02:59:16;100669.06;;;1.54;100.00
13420;BME280;6781;58.440;15.470;2023-04-30T03:01:43;100676.41;;;1.82;100.00
13420;BME280;6781;58.440;15.470;2023-04-30T03:04:10;100560.56;;;1.00;100.00
13420;BME280;6781;58.440;15.470;2023-04-30T03:06:39;100546.09;;;0.79;100.00
13420;BME280;6781;58.440;15.470;2023-04-30T03:09:06;100625.38;;;1.40;100.00
13420;BME280;6781;58.440;15.470;2023-04-30T03:11:33;100372.16;;;-0.15;100.00
13420;BME280;6781;58.440;15.470;2023-04-30T03:14:02;100676.50;;;1.60;100.00
13420;BME280;6781;58.440;15.470;2023-04-30T03:16:29;100380.84;;;-0.43;100.00
13420;BME280;6781;58.440;15.470;2023-04-30T03:18:56;100621.00;;;1.21;100.00
13420;BME280;6781;58.440;15.470;2023-04-30T03:21:23;100552.28;;;0.73;100.00
13420;BME280;6781;58.440;15.470;2023-04-30T03:23:52;100607.22;;;1.04;100.00
13420;BME280;6781;58.440;15.470;2023-04-30T03:26:19;100633.34;;;1.10;100.00
13420;BME280;6781;58.440;15.470;2023-04-30T03:28:46;100688.22;;;1.44;100.00
13420;BME280;6781;58.440;15.470;2023-04-30T03:31:14;100675.97;;;1.52;100.00
13420;BME280;6781;58.440;15.470;2023-04-30T03:33:41;100723.97;;;1.44;100.00
13420;BME280;6781;58.440;15.470;2023-04-30T03:36:08;100483.22;;;-0.10;100.00
13420;BME280;6781;58.440;15.470;2023-04-30T03:38:35;100438.69;;;-0.23;100.00
13420;BME280;6781;58.440;15.470;2023-04-30T03:41:04;100719.34;;;1.53;100.00
13420;BME280;6781;58.440;15.470;2023-04-30T03:43:31;100456.75;;;-0.29;100.00
13420;BME280;6781;58.440;15.470;2023-04-30T03:45:58;100732.31;;;1.49;100.00
13420;BME280;6781;58.440;15.470;2023-04-30T03:48:25;100643.38;;;0.93;100.00
13420;BME280;6781;58.440;15.470;2023-04-30T03:50:53;100599.34;;;0.66;100.00
13420;BME280;6781;58.440;15.470;2023-04-30T03:53:20;100698.25;;;1.26;100.00
13420;BME280;6781;58.440;15.470;2023-04-30T03:55:48;100462.38;;;-0.21;100.00
13420;BME280;6781;58.440;15.470;2023-04-30T03:58:17;100650.81;;;0.99;100.00
13420;BME280;6781;58.440;15.470;2023-04-30T04:00:44;100734.09;;;1.47;100.00
13420;BME280;6781;58.440;15.470;2023-04-30T04:03:12;100692.97;;;1.09;100.00
13420;BME280;6781;58.440;15.470;2023-04-30T04:05:39;100726.25;;;1.29;100.00
13420;BME280;6781;58.440;15.470;2023-04-30T04:08:07;100795.88;;;1.56;100.00
13420;BME280;6781;58.440;15.470;2023-04-30T04:10:34;100781.03;;;1.66;100.00
13420;BME280;6781;58.440;15.470;2023-04-30T04:13:01;100743.00;;;1.37;100.00
13420;BME280;6781;58.440;15.470;2023-04-30T04:15:29;100638.69;;;0.82;100.00
13420;BME280;6781;58.440;15.470;2023-04-30T04:17:56;100721.84;;;1.33;100.00
13420;BME280;6781;58.440;15.470;2023-04-30T04:20:23;100729.44;;;1.35;100.00
13420;BME280;6781;58.440;15.470;2023-04-30T04:22:50;100763.00;;;1.69;100.00
13420;BME280;6781;58.440;15.470;2023-04-30T04:25:17;100818.91;;;1.77;100.00
13420;BME280;6781;58.440;15.470;2023-04-30T04:27:45;100794.06;;;1.80;100.00
13420;BME280;6781;58.440;15.470;2023-04-30T04:30:11;100662.69;;;1.00;100.00
13420;BME280;6781;58.440;15.470;2023-04-30T04:32:41;100801.69;;;1.82;100.00
13420;BME280;6781;58.440;15.470;2023-04-30T04:35:13;100756.44;;;1.42;100.00
13420;BME280;6781;58.440;15.470;2023-04-30T04:37:41;100555.97;;;0.21;100.00
13420;BME280;6781;58.440;15.470;2023-04-30T04:40:09;100646.16;;;0.87;100.00
13420;BME280;6781;58.440;15.470;2023-04-30T04:42:36;100553.91;;;0.30;100.00
13420;BME280;6781;58.440;15.470;2023-04-30T04:45:05;100779.47;;;1.62;100.00
13420;BME280;6781;58.440;15.470;2023-04-30T04:47:35;100791.44;;;1.61;100.00
13420;BME280;6781;58.440;15.470;2023-04-30T04:52:50;100834.72;;;2.08;100.00
13420;BME280;6781;58.440;15.470;2023-04-30T04:55:17;100828.78;;;2.08;100.00
13420;BME280;6781;58.440;15.470;2023-04-30T04:57:44;100740.84;;;1.48;100.00
13420;BME280;6781;58.440;15.470;2023-04-30T05:00:12;100861.53;;;2.20;100.00
13420;BME280;6781;58.440;15.470;2023-04-30T05:02:39;100665.41;;;1.17;100.00
13420;BME280;6781;58.440;15.470;2023-04-30T05:05:08;100837.44;;;2.25;100.00
13420;BME280;6781;58.440;15.470;2023-04-30T05:07:38;100816.28;;;2.00;100.00
13420;BME280;6781;58.440;15.470;2023-04-30T05:10:11;100660.44;;;1.14;100.00
13420;BME280;6781;58.440;15.470;2023-04-30T05:12:38;100769.22;;;1.84;100.00
13420;BME280;6781;58.440;15.470;2023-04-30T05:15:08;100680.63;;;1.20;100.00
13420;BME280;6781;58.440;15.470;2023-04-30T05:17:37;100757.06;;;1.89;100.00
13420;BME280;6781;58.440;15.470;2023-04-30T05:20:05;100861.53;;;2.62;100.00
13420;BME280;6781;58.440;15.470;2023-04-30T05:22:34;100670.56;;;1.38;100.00
13420;BME280;6781;58.440;15.470;2023-04-30T05:25:01;100887.69;;;2.69;100.00
13420;BME280;6781;58.440;15.470;2023-04-30T05:27:29;100831.31;;;2.70;100.00
13420;BME280;6781;58.440;15.470;2023-04-30T05:29:56;100820.03;;;2.74;100.00
13420;BME280;6781;58.440;15.470;2023-04-30T05:32:23;100717.75;;;2.32;100.00
13420;BME280;6781;58.440;15.470;2023-04-30T05:34:50;100666.88;;;2.06;100.00
13420;BME280;6781;58.440;15.470;2023-04-30T05:37:17;100637.28;;;2.00;100.00
13420;BME280;6781;58.440;15.470;2023-04-30T05:39:46;100827.44;;;3.19;100.00
13420;BME280;6781;58.440;15.470;2023-04-30T05:42:13;100590.97;;;1.87;100.00
13420;BME280;6781;58.440;15.470;2023-04-30T05:44:41;100717.63;;;2.93;100.00
13420;BME280;6781;58.440;15.470;2023-04-30T05:47:08;100820.19;;;3.65;100.00
13420;BME280;6781;58.440;15.470;2023-04-30T05:49:35;100773.06;;;3.32;100.00
13420;BME280;6781;58.440;15.470;2023-04-30T05:52:02;100726.75;;;3.17;100.00
13420;BME280;6781;58.440;15.470;2023-04-30T05:54:29;100662.69;;;2.81;100.00
13420;BME280;6781;58.440;15.470;2023-04-30T05:56:58;100734.34;;;3.38;100.00
13420;BME280;6781;58.440;15.470;2023-04-30T05:59:26;100837.03;;;4.07;100.00
13420;BME280;6781;58.440;15.470;2023-04-30T06:01:56;100647.28;;;3.00;100.00
13420;BME280;6781;58.440;15.470;2023-04-30T06:04:23;100732.34;;;3.62;100.00
13420;BME280;6781;58.440;15.470;2023-04-30T06:06:50;100592.84;;;2.78;100.00
13420;BME280;6781;58.440;15.470;2023-04-30T06:09:19;100816.06;;;4.33;100.00
13420;BME280;6781;58.440;15.470;2023-04-30T06:11:46;100623.69;;;3.30;100.00
13420;BME280;6781;58.440;15.470;2023-04-30T06:14:16;100713.94;;;3.88;100.00
13420;BME280;6781;58.440;15.470;2023-04-30T06:16:44;100763.81;;;4.34;100.00
13420;BME280;6781;58.440;15.470;2023-04-30T06:19:11;100803.47;;;4.79;100.00
13420;BME280;6781;58.440;15.470;2023-04-30T06:21:38;100792.28;;;4.80;100.00
13420;BME280;6781;58.440;15.470;2023-04-30T06:24:08;100516.38;;;3.06;100.00
13420;BME280;6781;58.440;15.470;2023-04-30T06:26:35;100710.38;;;4.25;100.00
13420;BME280;6781;58.440;15.470;2023-04-30T06:29:02;100733.00;;;4.34;100.00
13420;BME280;6781;58.440;15.470;2023-04-30T06:31:30;100636.59;;;3.96;100.00
13420;BME280;6781;58.440;15.470;2023-04-30T06:33:57;100783.28;;;4.88;100.00
13420;BME280;6781;58.440;15.470;2023-04-30T06:36:25;100637.34;;;3.98;100.00
13420;BME280;6781;58.440;15.470;2023-04-30T06:38:51;100701.00;;;4.24;100.00
13420;BME280;6781;58.440;15.470;2023-04-30T06:41:18;100795.53;;;4.83;100.00
13420;BME280;6781;58.440;15.470;2023-04-30T06:43:45;100752.72;;;4.67;100.00
13420;BME280;6781;58.440;15.470;2023-04-30T06:46:13;100681.38;;;4.23;100.00
13420;BME280;6781;58.440;15.470;2023-04-30T06:48:42;100667.88;;;4.19;100.00
13420;BME280;6781;58.440;15.470;2023-04-30T06:51:09;100695.84;;;4.41;100.00
13420;BME280;6781;58.440;15.470;2023-04-30T06:53:36;100724.81;;;4.61;100.00
13420;BME280;6781;58.440;15.470;2023-04-30T06:56:03;100604.09;;;3.96;100.00
13420;BME280;6781;58.440;15.470;2023-04-30T06:58:30;100817.88;;;5.14;100.00
13420;BME280;6781;58.440;15.470;2023-04-30T07:00:57;100792.78;;;5.19;100.00
13420;BME280;6781;58.440;15.470;2023-04-30T07:03:25;100758.19;;;5.09;100.00
13420;BME280;6781;58.440;15.470;2023-04-30T07:05:53;100759.50;;;5.16;100.00
13420;BME280;6781;58.440;15.470;2023-04-30T07:08:21;100804.59;;;5.69;100.00
13420;BME280;6781;58.440;15.470;2023-04-30T07:10:48;100786.06;;;5.78;100.00
13420;BME280;6781;58.440;15.470;2023-04-30T07:13:15;100799.13;;;5.75;100.00
13420;BME280;6781;58.440;15.470;2023-04-30T07:15:42;100687.06;;;4.94;100.00
13420;BME280;6781;58.440;15.470;2023-04-30T07:18:09;100670.63;;;4.81;100.00
13420;BME280;6781;58.440;15.470;2023-04-30T07:20:36;100800.78;;;5.76;100.00
13420;BME280;6781;58.440;15.470;2023-04-30T07:23:07;100755.59;;;5.41;100.00
13420;BME280;6781;58.440;15.470;2023-04-30T07:25:34;100734.09;;;5.42;100.00
13420;BME280;6781;58.440;15.470;2023-04-30T07:28:01;100673.41;;;5.23;100.00
13420;BME280;6781;58.440;15.470;2023-04-30T07:30:28;100730.56;;;5.74;100.00
13420;BME280;6781;58.440;15.470;2023-04-30T07:32:55;100741.78;;;6.03;100.00
13420;BME280;6781;58.440;15.470;2023-04-30T07:35:22;100592.56;;;4.99;100.00
13420;BME280;6781;58.440;15.470;2023-04-30T07:37:52;100718.31;;;6.24;100.00
13420;BME280;6781;58.440;15.470;2023-04-30T07:40:26;100711.75;;;6.18;100.00
13420;BME280;6781;58.440;15.470;2023-04-30T07:43:07;100633.53;;;5.76;100.00
13420;BME280;6781;58.440;15.470;2023-04-30T07:45:34;100650.63;;;5.77;100.00
13420;BME280;6781;58.440;15.470;2023-04-30T07:48:02;100778.59;;;6.64;100.00
13420;BME280;6781;58.440;15.470;2023-04-30T07:50:30;100815.88;;;6.87;100.00
13420;BME280;6781;58.440;15.470;2023-04-30T07:52:59;100723.94;;;6.44;100.00
13420;BME280;6781;58.440;15.470;2023-04-30T07:55:28;100774.47;;;6.75;100.00
13420;BME280;6781;58.440;15.470;2023-04-30T07:57:55;100622.19;;;6.09;100.00
13420;BME280;6781;58.440;15.470;2023-04-30T08:00:23;100734.91;;;7.03;100.00
13420;BME280;6781;58.440;15.470;2023-04-30T08:02:50;100676.53;;;6.47;100.00
13420;BME280;6781;58.440;15.470;2023-04-30T08:05:17;100831.41;;;7.28;100.00
13420;BME280;6781;58.440;15.470;2023-04-30T08:07:44;100711.03;;;6.73;100.00
13420;BME280;6781;58.440;15.470;2023-04-30T08:10:11;100716.00;;;6.90;100.00
13420;BME280;6781;58.440;15.470;2023-04-30T08:12:41;100824.66;;;7.80;100.00
13420;BME280;6781;58.440;15.470;2023-04-30T08:15:08;100811.44;;;7.58;100.00
13420;BME280;6781;58.440;15.470;2023-04-30T08:17:37;100705.28;;;6.96;100.00
13420;BME280;6781;58.440;15.470;2023-04-30T08:20:06;100667.78;;;6.78;100.00
13420;BME280;6781;58.440;15.470;2023-04-30T08:22:33;100802.81;;;7.72;100.00
13420;BME280;6781;58.440;15.470;2023-04-30T08:25:00;100601.59;;;6.78;100.00
13420;BME280;6781;58.440;15.470;2023-04-30T08:27:29;100806.56;;;8.07;98.52
13420;BME280;6781;58.440;15.470;2023-04-30T08:29:58;100804.22;;;7.90;93.29
13420;BME280;6781;58.440;15.470;2023-04-30T08:32:25;100677.31;;;7.44;94.50
13420;BME280;6781;58.440;15.470;2023-04-30T08:34:53;100650.25;;;7.37;93.25
13420;BME280;6781;58.440;15.470;2023-04-30T08:37:20;100685.56;;;7.49;90.87
13420;BME280;6781;58.440;15.470;2023-04-30T08:39:47;100784.00;;;7.97;87.14
13420;BME280;6781;58.440;15.470;2023-04-30T08:42:14;100811.97;;;7.90;86.62
13420;BME280;6781;58.440;15.470;2023-04-30T08:44:43;100743.75;;;8.07;90.13
13420;BME280;6781;58.440;15.470;2023-04-30T08:47:12;100758.44;;;8.19;90.79
13420;BME280;6781;58.440;15.470;2023-04-30T08:49:40;100767.81;;;8.20;89.04
13420;BME280;6781;58.440;15.470;2023-04-30T08:52:16;100823.81;;;8.59;89.15
13420;BME280;6781;58.440;15.470;2023-04-30T08:54:45;100842.41;;;8.39;88.93
13420;BME280;6781;58.440;15.470;2023-04-30T08:57:13;100734.38;;;7.79;88.59
13420;BME280;6781;58.440;15.470;2023-04-30T08:59:44;100853.91;;;8.73;89.17
13420;BME280;6781;58.440;15.470;2023-04-30T09:02:15;100698.03;;;7.82;87.10
13420;BME280;6781;58.440;15.470;2023-04-30T09:04:47;100840.78;;;8.63;84.57
13420;BME280;6781;58.440;15.470;2023-04-30T09:07:17;100868.69;;;8.71;83.09
13420;BME280;6781;58.440;15.470;2023-04-30T09:09:44;100799.59;;;8.35;79.57
13420;BME280;6781;58.440;15.470;2023-04-30T09:12:12;100697.00;;;7.45;76.81
13420;BME280;6781;58.440;15.470;2023-04-30T09:14:56;100836.63;;;8.35;75.64
13420;BME280;6781;58.440;15.470;2023-04-30T09:17:25;100838.47;;;8.71;79.59
13420;BME280;6781;58.440;15.470;2023-04-30T09:19:52;100827.53;;;8.68;78.51
13420;BME280;6781;58.440;15.470;2023-04-30T09:22:21;100773.16;;;8.44;76.89
13420;BME280;6781;58.440;15.470;2023-04-30T09:24:49;100815.94;;;8.86;76.65
13420;BME280;6781;58.440;15.470;2023-04-30T09:27:17;100861.75;;;9.09;77.38
13420;BME280;6781;58.440;15.470;2023-04-30T09:29:44;100808.28;;;8.72;72.79
13420;BME280;6781;58.440;15.470;2023-04-30T09:32:12;100644.53;;;7.84;73.09
13420;BME280;6781;58.440;15.470;2023-04-30T09:34:41;100635.03;;;7.72;69.98
13420;BME280;6781;58.440;15.470;2023-04-30T09:37:11;100703.22;;;8.71;71.53
13420;BME280;6781;58.440;15.470;2023-04-30T09:39:49;100841.38;;;9.54;71.35
13420;BME280;6781;58.440;15.470;2023-04-30T09:42:17;100742.16;;;9.30;71.89
13420;BME280;6781;58.440;15.470;2023-04-30T09:44:47;100848.13;;;10.04;70.74
13420;BME280;6781;58.440;15.470;2023-04-30T09:47:15;100778.03;;;9.47;69.73
13420;BME280;6781;58.440;15.470;2023-04-30T09:49:48;100746.03;;;8.75;67.96
13420;BME280;6781;58.440;15.470;2023-04-30T09:52:19;100631.75;;;8.21;65.13
13420;BME280;6781;58.440;15.470;2023-04-30T09:54:57;100842.31;;;9.53;63.74
13420;BME280;6781;58.440;15.470;2023-04-30T09:57:26;100817.00;;;9.33;64.47
13420;BME280;6781;58.440;15.470;2023-04-30T09:59:57;100797.31;;;9.43;64.32
13420;BME280;6781;58.440;15.470;2023-04-30T10:02:26;100801.16;;;9.61;63.63
13420;BME280;6781;58.440;15.470;2023-04-30T10:04:57;100698.09;;;9.19;62.58
13420;BME280;6781;58.440;15.470;2023-04-30T10:07:30;100722.75;;;9.11;62.95
13420;BME280;6781;58.440;15.470;2023-04-30T10:10:03;100654.66;;;9.35;63.37
13420;BME280;6781;58.440;15.470;2023-04-30T10:12:38;100664.19;;;9.10;61.58
13420;BME280;6781;58.440;15.470;2023-04-30T10:15:12;100772.03;;;9.70;60.71
13420;BME280;6781;58.440;15.470;2023-04-30T10:17:42;100849.34;;;10.11;60.42
13420;BME280;6781;58.440;15.470;2023-04-30T10:20:16;100873.69;;;10.68;61.32
13420;BME280;6781;58.440;15.470;2023-04-30T10:22:47;100861.19;;;10.73;61.55
13420;BME280;6781;58.440;15.470;2023-04-30T10:25:16;100796.69;;;10.11;62.66
13420;BME280;6781;58.440;15.470;2023-04-30T10:27:44;100835.66;;;10.44;62.98
13420;BME280;6781;58.440;15.470;2023-04-30T10:30:16;100838.28;;;10.56;62.28
13420;BME280;6781;58.440;15.470;2023-04-30T10:32:52;100881.19;;;10.60;59.22
13420;BME280;6781;58.440;15.470;2023-04-30T10:35:37;100864.41;;;10.30;57.81
13420;BME280;6781;58.440;15.470;2023-04-30T10:38:12;100686.09;;;9.18;57.83
13420;BME280;6781;58.440;15.470;2023-04-30T10:40:44;100667.09;;;8.82;57.43
13420;BME280;6781;58.440;15.470;2023-04-30T10:43:12;100628.25;;;8.34;56.43
13420;BME280;6781;58.440;15.470;2023-04-30T10:45:42;100637.41;;;8.75;58.99
13420;BME280;6781;58.440;15.470;2023-04-30T10:48:10;100761.06;;;9.43;59.80
13420;BME280;6781;58.440;15.470;2023-04-30T10:50:44;100875.25;;;9.51;57.03
13420;BME280;6781;58.440;15.470;2023-04-30T10:53:12;100822.69;;;9.38;58.20
13420;BME280;6781;58.440;15.470;2023-04-30T10:55:45;100825.81;;;9.30;55.85
13420;BME280;6781;58.440;15.470;2023-04-30T10:58:24;100729.16;;;8.69;57.63
13420;BME280;6781;58.440;15.470;2023-04-30T11:00:59;100759.91;;;8.61;58.93
13420;BME280;6781;58.440;15.470;2023-04-30T11:03:27;100882.44;;;9.09;58.96
13420;BME280;6781;58.440;15.470;2023-04-30T11:05:56;100901.91;;;9.28;60.39
13420;BME280;6781;58.440;15.470;2023-04-30T11:08:33;100879.44;;;9.16;59.26
13420;BME280;6781;58.440;15.470;2023-04-30T11:11:00;100875.31;;;9.26;58.64
13420;BME280;6781;58.440;15.470;2023-04-30T11:13:37;100844.44;;;9.23;60.89
13420;BME280;6781;58.440;15.470;2023-04-30T11:16:05;100735.53;;;8.53;58.91
13420;BME280;6781;58.440;15.470;2023-04-30T11:18:32;100613.25;;;7.89;57.12
13420;BME280;6781;58.440;15.470;2023-04-30T11:21:01;100760.91;;;8.84;60.44
13420;BME280;6781;58.440;15.470;2023-04-30T11:23:28;100898.31;;;9.67;61.28
13420;BME280;6781;58.440;15.470;2023-04-30T11:25:55;100889.28;;;9.72;61.15
13420;BME280;6781;58.440;15.470;2023-04-30T11:28:26;100839.47;;;9.32;60.19
13420;BME280;6781;58.440;15.470;2023-04-30T11:30:56;100892.50;;;9.76;59.70
13420;BME280;6781;58.440;15.470;2023-04-30T11:33:25;100849.00;;;9.32;57.39
13420;BME280;6781;58.440;15.470;2023-04-30T11:35:53;100884.63;;;9.77;59.82
13420;BME280;6781;58.440;15.470;2023-04-30T11:38:29;100883.16;;;9.73;59.76
13420;BME280;6781;58.440;15.470;2023-04-30T11:40:56;100781.41;;;9.24;60.19
13420;BME280;6781;58.440;15.470;2023-04-30T11:43:28;100790.78;;;9.37;61.40
13420;BME280;6781;58.440;15.470;2023-04-30T11:46:00;100731.72;;;8.95;60.29
13420;BME280;6781;58.440;15.470;2023-04-30T11:48:31;100642.19;;;8.44;60.29
13420;BME280;6781;58.440;15.470;2023-04-30T11:50:59;100782.28;;;9.11;59.69
13420;BME280;6781;58.440;15.470;2023-04-30T11:53:29;100846.06;;;9.49;57.80
13420;BME280;6781;58.440;15.470;2023-04-30T11:56:01;100770.84;;;9.27;58.91
13420;BME280;6781;58.440;15.470;2023-04-30T11:58:32;100863.94;;;9.89;59.22
13420;BME280;6781;58.440;15.470;2023-04-30T12:01:00;100644.75;;;8.44;58.07
13420;BME280;6781;58.440;15.470;2023-04-30T12:03:31;100714.75;;;9.51;59.04
13420;BME280;6781;58.440;15.470;2023-04-30T12:06:01;100761.25;;;9.88;58.05
13420;BME280;6781;58.440;15.470;2023-04-30T12:08:29;100750.59;;;10.03;57.47
13420;BME280;6781;58.440;15.470;2023-04-30T12:10:59;100719.19;;;9.73;59.34
13420;BME280;6781;58.440;15.470;2023-04-30T12:13:26;100756.56;;;9.58;56.80
13420;BME280;6781;58.440;15.470;2023-04-30T12:15:57;100854.97;;;10.29;54.76
13420;BME280;6781;58.440;15.470;2023-04-30T12:18:24;100899.03;;;10.64;57.25
13420;BME280;6781;58.440;15.470;2023-04-30T12:20:52;100637.94;;;9.28;57.03
13420;BME280;6781;58.440;15.470;2023-04-30T12:23:21;100657.66;;;9.18;55.44
13420;BME280;6781;58.440;15.470;2023-04-30T12:25:49;100808.09;;;10.43;55.33
13420;BME280;6781;58.440;15.470;2023-04-30T12:28:17;100641.41;;;9.16;55.09
13420;BME280;6781;58.440;15.470;2023-04-30T12:30:44;100870.44;;;10.99;57.51
13420;BME280;6781;58.440;15.470;2023-04-30T12:33:11;100736.06;;;10.25;56.90
13420;BME280;6781;58.440;15.470;2023-04-30T12:35:41;100889.56;;;11.43;56.66
13420;BME280;6781;58.440;15.470;2023-04-30T12:38:09;100907.72;;;11.65;56.38
13420;BME280;6781;58.440;15.470;2023-04-30T12:40:36;100893.66;;;11.57;54.79
13420;BME280;6781;58.440;15.470;2023-04-30T12:43:06;100878.69;;;10.93;52.11
13420;BME280;6781;58.440;15.470;2023-04-30T12:45:44;100867.59;;;11.25;53.73
13420;BME280;6781;58.440;15.470;2023-04-30T12:48:13;100845.19;;;11.01;55.72
13420;BME280;6781;58.440;15.470;2023-04-30T12:50:40;100756.38;;;10.75;53.49
13420;BME280;6781;58.440;15.470;2023-04-30T12:53:07;100885.53;;;10.94;51.33
13420;BME280;6781;58.440;15.470;2023-04-30T12:55:35;100879.88;;;11.00;51.04
13420;BME280;6781;58.440;15.470;2023-04-30T12:58:09;100773.69;;;10.86;53.25
13420;BME280;6781;58.440;15.470;2023-04-30T13:00:44;100850.59;;;11.21;52.39
13420;BME280;6781;58.440;15.470;2023-04-30T13:03:15;100876.34;;;11.24;49.70
13420;BME280;6781;58.440;15.470;2023-04-30T13:05:45;100924.47;;;11.72;53.67
13420;BME280;6781;58.440;15.470;2023-04-30T13:08:14;100721.09;;;10.95;54.14